Time;durP1;ratioP1;P1;durP2;ratioP2;P2;SDS_P1;SDS_P2;PMS_P1;PMS_P2;Temp;Humidity;BMP_temperature;BMP_pressure;BME280_temperature;BME280_humidity;BME280_pressure;Samples;Min_cycle;Max_cycle;Signal;HPM_P1;HPM_P2
2021/11/04 00:03:23;;;;;;;38.20;21.53;;;;;;;7.31;93.92;99662.30;5128849;56;1139079;-78
2021/11/04 00:08:29;;;;;;;39.07;21.17;;;;;;;7.32;94.51;99669.23;5129072;56;1138999;-78
2021/11/04 00:13:35;;;;;;;42.10;21.10;;;;;;;7.32;94.39;99662.17;5128619;56;1139007;-78
2021/11/04 00:18:41;;;;;;;41.33;20.63;;;;;;;7.35;94.41;99658.44;5129019;56;1139049;-78
2021/11/04 00:23:46;;;;;;;38.37;19.70;;;;;;;7.41;94.50;99662.76;5128704;56;1139117;-78
2021/11/04 00:28:53;;;;;;;47.37;21.03;;;;;;;7.48;94.55;99654.41;5120320;56;1139225;-77
2021/11/04 00:33:59;;;;;;;34.03;20.43;;;;;;;7.51;94.74;99655.45;5118541;56;1139096;-78
2021/11/04 00:39:07;;;;;;;38.30;21.43;;;;;;;7.51;94.73;99645.77;5118535;56;1139147;-76
2021/11/04 00:44:13;;;;;;;36.70;18.63;;;;;;;7.52;94.68;99648.75;5118610;57;1139301;-78
2021/11/04 00:49:18;;;;;;;41.90;21.30;;;;;;;7.56;94.77;99645.41;5118576;57;1139097;-78
2021/11/04 00:54:24;;;;;;;42.93;20.20;;;;;;;7.61;94.96;99641.95;5118283;57;1139671;-76
2021/11/04 00:59:30;;;;;;;40.10;21.33;;;;;;;7.63;95.04;99650.56;5116810;57;1139550;-76
2021/11/04 01:04:35;;;;;;;41.47;19.87;;;;;;;7.65;95.30;99640.24;5116835;57;1139175;-76
2021/11/04 01:09:41;;;;;;;38.47;19.37;;;;;;;7.69;95.12;99632.95;5116750;57;1139025;-77
2021/11/04 01:14:47;;;;;;;37.97;18.50;;;;;;;7.71;95.12;99624.45;5116559;57;1139008;-78
2021/11/04 01:19:54;;;;;;;36.90;19.93;;;;;;;7.76;95.16;99619.67;5117211;57;1139197;-76
2021/11/04 01:25:00;;;;;;;45.23;21.33;;;;;;;7.78;95.34;99622.18;5116472;57;1139193;-77
2021/11/04 01:30:07;;;;;;;39.97;20.43;;;;;;;7.79;95.40;99610.70;5148407;57;1139143;-77
2021/11/04 01:35:13;;;;;;;37.20;18.47;;;;;;;7.80;95.34;99614.97;5151465;57;1139135;-76
2021/11/04 01:40:19;;;;;;;40.03;17.87;;;;;;;7.82;95.41;99582.30;5150913;57;1139069;-76
2021/11/04 01:45:26;;;;;;;35.43;18.63;;;;;;;7.82;95.53;99567.83;5151002;57;1139381;-77
2021/11/04 01:50:32;;;;;;;37.93;20.23;;;;;;;7.80;95.67;99560.53;5151210;56;1139365;-77
2021/11/04 01:55:40;;;;;;;36.23;18.50;;;;;;;7.77;95.85;99559.49;5172133;56;1139402;-76
2021/11/04 02:00:46;;;;;;;34.60;18.37;;;;;;;7.79;95.83;99562.00;5150940;56;1139300;-78
2021/11/04 02:06:09;;;;;;;29.73;16.20;;;;;;;7.80;96.13;99547.37;5151401;56;1139146;-78
2021/11/04 02:11:39;;;;;;;33.07;18.50;;;;;;;7.86;96.19;99524.50;5150862;56;1139344;-78
2021/11/04 02:16:46;;;;;;;30.80;15.30;;;;;;;7.89;96.53;99518.99;5150870;56;1138962;-77
2021/11/04 02:22:01;;;;;;;33.73;16.43;;;;;;;7.91;97.01;99498.64;5151683;56;1137232;-76
2021/11/04 02:27:10;;;;;;;26.90;14.97;;;;;;;7.94;97.03;99502.34;5153661;56;1137161;-78
2021/11/04 02:32:16;;;;;;;26.10;16.13;;;;;;;7.98;97.06;99485.79;5153061;56;1136932;-77
2021/11/04 02:37:22;;;;;;;31.80;16.60;;;;;;;8.03;97.40;99484.45;5152797;56;1137015;-78
2021/11/04 02:42:28;;;;;;;27.97;16.63;;;;;;;8.03;97.41;99483.63;5152707;56;1136986;-78
2021/11/04 02:47:41;;;;;;;30.83;14.97;;;;;;;8.07;97.42;99490.31;5152473;56;1136912;-76
2021/11/04 02:52:47;;;;;;;29.00;15.33;;;;;;;8.11;97.53;99482.48;5153903;57;1136970;-76
2021/11/04 02:57:53;;;;;;;28.33;16.40;;;;;;;8.18;97.55;99477.06;5151649;57;1136959;-77
2021/11/04 03:02:59;;;;;;;26.90;14.87;;;;;;;8.22;97.73;99471.06;5151282;57;1137035;-76
2021/11/04 03:08:06;;;;;;;31.87;15.70;;;;;;;8.22;97.87;99461.37;5151247;57;1137087;-77
2021/11/04 03:13:12;;;;;;;28.17;14.03;;;;;;;8.27;97.73;99453.89;5152412;57;1137187;-75
2021/11/04 03:18:19;;;;;;;24.87;13.83;;;;;;;8.31;97.81;99447.41;5153595;57;1137157;-76
2021/11/04 03:23:25;;;;;;;29.37;15.07;;;;;;;8.35;97.83;99449.33;5153530;57;1136957;-78
2021/11/04 03:28:32;;;;;;;32.73;13.80;;;;;;;8.36;97.99;99444.41;5153395;57;1134825;-76
2021/11/04 03:33:41;;;;;;;24.00;12.63;;;;;;;8.41;97.80;99431.66;5153430;57;1135115;-76
2021/11/04 03:38:49;;;;;;;26.40;12.33;;;;;;;8.45;97.86;99422.05;5153505;57;1139030;-76
2021/11/04 03:43:55;;;;;;;21.93;13.55;;;;;;;8.51;97.97;99409.33;5153316;57;1139120;-77
2021/11/04 03:49:02;;;;;;;26.13;13.27;;;;;;;8.54;98.26;99404.63;5153385;56;1138979;-75
2021/11/04 03:54:08;;;;;;;24.80;11.97;;;;;;;8.56;98.22;99399.20;5153239;56;1139304;-77
2021/11/04 03:59:13;;;;;;;22.47;12.07;;;;;;;8.58;98.34;99399.91;5153252;56;1139090;-76
2021/11/04 04:04:20;;;;;;;21.23;11.90;;;;;;;8.61;97.97;99407.06;5163490;56;1139111;-76
2021/11/04 04:09:26;;;;;;;19.63;12.37;;;;;;;8.66;98.11;99420.69;5163681;56;1139056;-77
2021/11/04 04:14:32;;;;;;;17.93;11.27;;;;;;;8.69;98.06;99421.74;5163333;56;1139040;-76
2021/11/04 04:19:38;;;;;;;29.10;11.93;;;;;;;8.71;98.13;99430.33;5163540;56;1139055;-78
2021/11/04 04:24:44;;;;;;;18.93;10.70;;;;;;;8.72;98.02;99425.41;5163477;56;1139047;-76
2021/11/04 04:29:50;;;;;;;24.33;11.30;;;;;;;8.72;98.03;99424.09;5163192;56;1139065;-76
2021/11/04 04:34:55;;;;;;;20.23;9.67;;;;;;;8.78;98.22;99431.47;5163499;56;1139117;-78
2021/11/04 04:40:01;;;;;;;25.73;12.23;;;;;;;8.86;98.10;99435.25;5163518;56;1136961;-78
2021/11/04 04:45:08;;;;;;;21.23;10.87;;;;;;;8.89;98.19;99429.20;5163341;56;1139284;-77
2021/11/04 04:50:14;;;;;;;19.87;10.00;;;;;;;8.87;98.31;99417.95;5163248;57;1139110;-77
2021/11/04 04:55:20;;;;;;;24.60;9.90;;;;;;;8.88;98.08;99405.13;5163371;57;1139292;-78
2021/11/04 05:00:26;;;;;;;16.53;8.37;;;;;;;8.90;98.06;99407.63;5163439;57;1136792;-78
2021/11/04 05:05:33;;;;;;;21.93;9.17;;;;;;;8.94;98.10;99405.08;5163433;57;1136813;-76
2021/11/04 05:10:38;;;;;;;16.80;9.43;;;;;;;8.96;98.25;99394.75;5163101;57;1136984;-77
2021/11/04 05:15:44;;;;;;;15.47;8.90;;;;;;;8.97;98.32;99385.03;5171529;56;1137140;-78
2021/11/04 05:20:50;;;;;;;18.10;8.60;;;;;;;8.98;98.19;99377.47;5181746;56;1136922;-78
2021/11/04 05:25:56;;;;;;;14.73;8.67;;;;;;;8.99;98.11;99362.00;5177165;56;1136946;-77
2021/11/04 05:31:02;;;;;;;16.00;8.93;;;;;;;9.05;98.17;99358.31;5162204;56;1137027;-77
2021/11/04 05:36:08;;;;;;;14.83;9.33;;;;;;;9.05;98.22;99356.99;5136272;56;1137008;-78
2021/11/04 05:41:14;;;;;;;17.90;9.23;;;;;;;9.03;98.31;99348.87;5143523;56;1136884;-77
2021/11/04 05:46:20;;;;;;;21.40;9.47;;;;;;;9.06;98.25;99351.23;5128810;56;1137220;-77
2021/11/04 05:51:25;;;;;;;16.43;8.30;;;;;;;9.06;98.27;99345.95;5147626;56;1137051;-76
2021/11/04 05:56:31;;;;;;;20.50;11.17;;;;;;;9.07;98.32;99351.58;5196725;56;1137075;-76
2021/11/04 06:01:37;;;;;;;14.80;8.90;;;;;;;9.06;98.65;99353.87;5127142;57;1139075;-76
2021/11/04 06:06:43;;;;;;;17.07;8.80;;;;;;;9.05;98.77;99342.48;5127379;57;1136905;-79
2021/11/04 06:11:48;;;;;;;19.60;9.47;;;;;;;9.05;98.89;99331.94;5127158;57;1136960;-77
2021/11/04 06:16:54;;;;;;;21.57;9.80;;;;;;;9.06;99.36;99315.63;5127363;56;1136961;-77
2021/11/04 06:22:00;;;;;;;15.00;8.67;;;;;;;9.02;100.00;99307.64;5127094;56;1137059;-76
2021/11/04 06:27:06;;;;;;;19.63;9.40;;;;;;;9.00;100.00;99301.21;5127264;57;1139049;-76
2021/11/04 06:32:12;;;;;;;16.37;9.80;;;;;;;8.99;100.00;99297.39;5140525;56;1139088;-77
2021/11/04 06:37:17;;;;;;;18.07;9.67;;;;;;;9.00;100.00;99291.98;5161817;56;1138926;-76
2021/11/04 06:42:23;;;;;;;15.93;10.23;;;;;;;9.01;100.00;99286.22;5161547;56;1139044;-76
2021/11/04 06:47:39;;;;;;;15.47;9.77;;;;;;;8.95;100.00;99284.13;5141992;56;1141121;-77
2021/11/04 06:52:53;;;;;;;16.57;10.70;;;;;;;8.93;100.00;99281.62;5121183;57;1137096;-77
2021/11/04 07:03:16;;;;;;;21.23;11.60;;;;;;;8.97;100.00;99266.37;5303454;55;46187;-76
2021/11/04 07:08:24;;;;;;;17.92;10.78;;;;;;;8.92;100.00;99254.08;5024194;56;1134748;-75
2021/11/04 07:13:33;;;;;;;23.63;12.23;;;;;;;8.93;100.00;99264.48;5112594;56;1139190;-75
2021/11/04 07:18:39;;;;;;;15.17;10.60;;;;;;;8.96;100.00;99273.45;5066833;57;1139062;-76
2021/11/04 07:24:03;;;;;;;16.83;10.73;;;;;;;8.99;100.00;99291.63;4984584;57;1139283;-75
2021/11/04 07:29:12;;;;;;;22.40;13.00;;;;;;;9.05;100.00;99289.73;4956494;59;1139095;-76
2021/11/04 07:34:18;;;;;;;19.30;12.53;;;;;;;9.05;100.00;99269.13;5018519;57;1139202;-74
2021/11/04 07:39:25;;;;;;;19.27;12.20;;;;;;;8.98;100.00;99246.45;5022202;58;1137062;-76
2021/11/04 07:44:31;;;;;;;20.00;11.53;;;;;;;8.93;100.00;99242.56;5035061;58;1136932;-76
2021/11/04 07:49:37;;;;;;;21.87;13.27;;;;;;;8.95;100.00;99224.80;5040617;57;1141017;-77
2021/11/04 07:54:43;;;;;;;19.33;13.03;;;;;;;8.96;100.00;99225.98;5098317;57;1140956;-76
2021/11/04 07:59:48;;;;;;;22.57;13.70;;;;;;;8.96;100.00;99215.44;5061331;57;1141244;-77
2021/11/04 08:04:55;;;;;;;18.20;13.37;;;;;;;8.99;100.00;99215.64;5042174;58;1141354;-76
2021/11/04 08:10:01;;;;;;;20.90;12.57;;;;;;;8.98;100.00;99206.06;5046961;57;1141133;-76
2021/11/04 08:15:10;;;;;;;12.23;7.87;;;;;;;9.02;100.00;99203.47;5118310;57;1141199;-77
2021/11/04 08:20:16;;;;;;;20.10;12.67;;;;;;;9.01;100.00;99173.62;5121876;57;1139008;-77
2021/11/04 08:25:22;;;;;;;24.20;13.00;;;;;;;9.00;100.00;99164.08;5131483;56;1141152;-78
2021/11/04 08:30:28;;;;;;;18.27;12.13;;;;;;;9.03;100.00;99152.39;5217124;55;1141378;-77
2021/11/04 08:35:34;;;;;;;26.80;16.07;;;;;;;9.07;100.00;99178.34;5201434;56;1141090;-76
2021/11/04 08:40:40;;;;;;;18.23;12.90;;;;;;;9.06;100.00;99175.36;5048838;58;1141271;-76
2021/11/04 08:45:46;;;;;;;26.63;15.30;;;;;;;9.06;100.00;99144.20;5058988;57;1141399;-78
2021/11/04 08:50:52;;;;;;;23.20;13.17;;;;;;;9.04;100.00;99141.70;5142406;56;1141119;-75
2021/11/04 08:55:58;;;;;;;23.77;13.78;;;;;;;9.03;100.00;99139.20;5144331;56;1141156;-76
2021/11/04 09:01:06;;;;;;;17.07;10.93;;;;;;;9.04;100.00;99132.95;5127896;56;1140672;-85
2021/11/04 09:06:11;;;;;;;25.50;14.80;;;;;;;9.05;100.00;99105.12;5026944;57;1141093;-81
2021/11/04 09:11:17;;;;;;;24.47;14.63;;;;;;;9.02;100.00;99101.94;4975549;57;1141130;-85
2021/11/04 09:16:23;;;;;;;22.07;12.87;;;;;;;8.97;100.00;99090.53;5091264;57;1141139;-80
2021/11/04 09:21:28;;;;;;;20.40;13.20;;;;;;;8.93;100.00;99056.19;5070257;58;1141246;-82
2021/11/04 09:26:37;;;;;;;22.57;12.57;;;;;;;8.89;100.00;99053.97;5066770;58;1141162;-83
2021/11/04 09:31:43;;;;;;;41.93;24.53;;;;;;;8.88;100.00;99049.19;5049551;57;1141120;-81
2021/11/04 09:36:49;;;;;;;19.07;14.27;;;;;;;8.87;100.00;99063.83;5083041;57;1141090;-86
2021/11/04 09:41:57;;;;;;;21.87;14.97;;;;;;;8.90;100.00;99051.68;5111812;57;1141099;-82
2021/11/04 09:47:03;;;;;;;20.30;13.93;;;;;;;8.87;100.00;99048.00;5085045;57;1141111;-83
2021/11/04 09:52:08;;;;;;;18.50;11.43;;;;;;;8.87;100.00;99038.78;5064165;57;1141122;-82
2021/11/04 09:57:15;;;;;;;27.23;12.50;;;;;;;8.85;100.00;99017.03;5033905;57;1141115;-77
2021/11/04 10:02:25;;;;;;;23.03;12.67;;;;;;;8.84;100.00;99011.41;5035366;57;1141145;-76
2021/11/04 10:07:46;;;;;;;20.10;13.03;;;;;;;8.84;100.00;98999.55;5043336;56;1141370;-77
2021/11/04 10:13:10;;;;;;;14.27;11.23;;;;;;;8.85;100.00;98988.86;5101661;56;1141118;-78
2021/11/04 10:18:22;;;;;;;19.60;12.73;;;;;;;8.87;100.00;98954.41;5139066;56;1141107;-76
2021/11/04 10:23:39;;;;;;;20.67;13.30;;;;;;;8.87;100.00;98946.02;5136080;57;1139049;-77
2021/11/04 10:28:49;;;;;;;24.03;13.47;;;;;;;8.90;100.00;98942.27;5015374;58;1139170;-75
2021/11/04 10:33:55;;;;;;;25.37;17.37;;;;;;;8.90;100.00;98940.95;5035314;57;1139046;-77
2021/11/04 10:39:02;;;;;;;20.57;13.23;;;;;;;8.91;100.00;98935.53;5034222;57;1139080;-76
2021/11/04 10:44:11;;;;;;;24.40;15.83;;;;;;;8.94;100.00;98918.10;5032772;58;1139297;-78
2021/11/04 10:49:20;;;;;;;20.93;13.63;;;;;;;8.99;100.00;98912.39;5032313;57;1139017;-78
2021/11/04 10:54:26;;;;;;;16.00;11.63;;;;;;;9.03;100.00;98884.73;5030973;58;1139060;-78
2021/11/04 10:59:46;;;;;;;17.77;12.40;;;;;;;9.05;100.00;98882.78;5031092;58;1139191;-80
2021/11/04 11:04:54;;;;;;;22.07;14.33;;;;;;;9.09;100.00;98857.28;5083264;57;1139189;-76
2021/11/04 11:10:01;;;;;;;180.40;128.03;;;;;;;9.08;100.00;98833.70;5057196;56;1139120;-77
2021/11/04 11:15:07;;;;;;;90.80;55.77;;;;;;;9.05;100.00;98804.98;5044564;57;1141608;-77
2021/11/04 11:20:15;;;;;;;19.90;14.85;;;;;;;9.05;100.00;98802.34;5044332;56;1136985;-77
2021/11/04 11:25:20;;;;;;;25.43;17.63;;;;;;;9.06;100.00;98800.88;5063779;56;1141051;-76
2021/11/04 11:30:26;;;;;;;22.73;14.23;;;;;;;9.11;100.00;98804.39;5140486;56;1141399;-77
2021/11/04 11:35:32;;;;;;;22.20;15.23;;;;;;;9.15;100.00;98778.89;5140882;56;1141114;-76
2021/11/04 11:40:38;;;;;;;27.77;15.93;;;;;;;9.17;100.00;98758.93;5140703;57;1141001;-77
2021/11/04 11:45:50;;;;;;;16.30;11.77;;;;;;;9.17;100.00;98756.30;5151637;55;1141037;-77
2021/11/04 11:50:59;;;;;;;23.00;13.60;;;;;;;9.21;100.00;98746.27;5302551;55;1141093;-78
2021/11/04 11:56:07;;;;;;;19.00;13.37;;;;;;;9.25;100.00;98766.09;5303738;55;1140530;-77
2021/11/04 12:01:19;;;;;;;19.07;11.77;;;;;;;9.27;100.00;98736.44;5253180;55;1141077;-77
2021/11/04 12:06:29;;;;;;;69.83;38.80;;;;;;;9.31;100.00;98734.66;5294531;55;1141181;-82
2021/11/04 12:11:48;;;;;;;22.47;17.73;;;;;;;9.38;100.00;98724.30;5291699;55;1141173;-84
2021/11/04 12:17:11;;;;;;;20.30;14.30;;;;;;;9.43;100.00;98718.08;5294900;55;1141116;-86
2021/11/04 12:22:29;;;;;;;19.63;12.77;;;;;;;9.46;100.00;98695.34;5280726;55;1141237;-82
2021/11/04 12:27:43;;;;;;;14.60;11.43;;;;;;;9.49;100.00;98697.16;5284540;55;1140557;-79
2021/11/04 12:33:10;;;;;;;16.00;12.20;;;;;;;9.55;100.00;98685.64;5297576;55;1141054;-84
2021/11/04 12:38:30;;;;;;;31.23;23.00;;;;;;;9.60;100.00;98682.87;5297665;55;1141372;-84
2021/11/04 12:43:41;;;;;;;14.30;10.93;;;;;;;9.68;100.00;98653.04;5292208;55;1141588;-83
2021/11/04 12:48:59;;;;;;;17.00;11.33;;;;;;;9.79;100.00;98662.81;5296065;55;1141272;-83
2021/11/04 12:54:06;;;;;;;22.47;12.93;;;;;;;9.89;100.00;98656.10;5281897;55;1139107;-86
2021/11/04 12:59:34;;;;;;;16.73;11.13;;;;;;;10.00;100.00;98647.88;5296710;55;1139031;-84
2021/11/04 13:04:56;;;;;;;15.50;10.90;;;;;;;10.08;100.00;98641.80;5296202;55;1140794;-82
2021/11/04 13:10:24;;;;;;;23.20;14.17;;;;;;;10.14;100.00;98651.20;5296925;55;1141129;-87
2021/11/04 13:15:28;;;;;;;24.37;12.40;;;;;;;10.17;100.00;98636.86;5295493;55;1141040;-83
2021/11/04 13:20:43;;;;;;;18.87;11.77;;;;;;;10.18;100.00;98630.13;5297441;55;1139043;-85
2021/11/04 13:25:57;;;;;;;19.40;11.88;;;;;;;10.20;100.00;98637.39;5282872;55;1142741;-84
2021/11/04 13:31:14;;;;;;;26.90;15.25;;;;;;;10.25;100.00;98633.42;5138851;57;1143263;-86
2021/11/04 13:36:23;;;;;;;24.90;14.90;;;;;;;10.31;100.00;98627.00;5038086;58;1143223;-83
2021/11/04 13:41:42;;;;;;;16.10;11.17;;;;;;;10.34;100.00;98631.14;5077552;56;1143354;-84
2021/11/04 13:46:50;;;;;;;21.47;15.13;;;;;;;10.38;100.00;98637.27;5196045;56;1143232;-85
2021/11/04 13:52:00;;;;;;;17.93;8.97;;;;;;;10.42;100.00;98647.81;5109204;57;1142611;-82
2021/11/04 13:57:11;;;;;;;19.10;13.60;;;;;;;10.44;100.00;98627.83;5031301;58;1140699;-82
2021/11/04 14:02:20;;;;;;;19.23;13.50;;;;;;;10.49;100.00;98632.14;5116643;57;1143251;-83
2021/11/04 14:07:34;;;;;;;17.57;11.60;;;;;;;10.60;100.00;98629.16;5129636;57;1143258;-82
2021/11/04 14:12:45;;;;;;;21.53;12.23;;;;;;;10.72;100.00;98625.19;5078229;57;1143198;-84
2021/11/04 14:17:57;;;;;;;270.70;159.77;;;;;;;10.78;100.00;98627.67;5126179;57;1143222;-81
2021/11/04 14:23:04;;;;;;;38.57;26.93;;;;;;;10.82;100.00;98623.71;5149544;56;1147354;-83
2021/11/04 14:28:10;;;;;;;45.53;31.17;;;;;;;10.88;100.00;98631.79;5097400;57;1142986;-86
2021/11/04 14:33:19;;;;;;;41.07;18.83;;;;;;;10.95;100.00;98643.03;5060193;58;1143255;-84
2021/11/04 14:38:22;;;;;;;37.10;20.47;;;;;;;11.02;100.00;98633.42;5031683;58;1143471;-82
2021/11/04 14:43:29;;;;;;;11.87;6.83;;;;;;;11.08;100.00;98652.11;5031306;58;1143269;-81
2021/11/04 14:48:35;;;;;;;7.90;5.40;;;;;;;11.16;100.00;98649.43;5087349;57;1141136;-80
2021/11/04 14:53:40;;;;;;;5.20;3.00;;;;;;;11.16;100.00;98679.03;5088305;57;1139215;-82
2021/11/04 14:58:46;;;;;;;13.27;5.30;;;;;;;11.00;98.39;98696.27;5114621;57;1139230;-79
2021/11/04 15:03:52;;;;;;;3.90;2.40;;;;;;;10.79;96.75;98702.05;5114185;57;1139240;-81
2021/11/04 15:08:58;;;;;;;5.17;1.90;;;;;;;10.49;94.47;98710.94;5114482;57;1137207;-80
2021/11/04 15:14:04;;;;;;;3.53;1.23;;;;;;;10.19;93.42;98744.05;5114536;57;1136967;-82
2021/11/04 15:19:11;;;;;;;2.20;1.73;;;;;;;9.92;92.06;98755.30;5060746;57;1137078;-77
2021/11/04 15:24:17;;;;;;;6.10;3.53;;;;;;;9.66;91.07;98776.42;5076092;57;1135054;-81
2021/11/04 15:29:24;;;;;;;7.20;4.03;;;;;;;9.48;92.78;98784.39;5186988;56;1134898;-78
2021/11/04 15:34:29;;;;;;;2.93;1.60;;;;;;;9.33;92.48;98775.38;5203650;56;1132816;-80
2021/11/04 15:39:36;;;;;;;1.83;1.10;;;;;;;9.25;94.31;98765.60;5078498;56;1132757;-80
2021/11/04 15:44:41;;;;;;;4.80;1.83;;;;;;;9.16;93.80;98773.95;5213790;55;1132736;-80
2021/11/04 15:49:47;;;;;;;5.90;2.90;;;;;;;9.09;94.05;98794.48;5246252;55;1132270;-79
2021/11/04 15:54:54;;;;;;;7.13;2.53;;;;;;;9.06;93.69;98781.59;5035191;58;1132829;-79
2021/11/04 15:59:59;;;;;;;4.37;3.17;;;;;;;9.06;94.10;98790.82;5228216;56;1132813;-80
2021/11/04 16:05:06;;;;;;;1.70;1.50;;;;;;;9.04;93.13;98812.55;5243459;56;1132966;-79
2021/11/04 16:10:12;;;;;;;17.40;9.05;;;;;;;9.03;92.89;98816.17;5222329;56;1132796;-80
2021/11/04 16:15:18;;;;;;;5.85;2.75;;;;;;;8.97;90.77;98833.92;5248917;56;1134978;-79
2021/11/04 16:20:25;;;;;;;8.57;3.47;;;;;;;8.90;89.42;98833.68;5251711;56;1132811;-79
2021/11/04 16:25:31;;;;;;;5.30;4.00;;;;;;;8.84;88.33;98854.56;5251651;56;1132770;-85
2021/11/04 16:30:37;;;;;;;7.07;3.83;;;;;;;8.75;86.79;98860.22;5251829;56;1132704;-80
2021/11/04 16:35:42;;;;;;;2.10;1.90;;;;;;;8.73;88.42;98860.36;5168786;56;1132809;-77
2021/11/04 16:40:48;;;;;;;1.97;1.57;;;;;;;8.66;87.62;98882.20;5138794;57;1132902;-80
2021/11/04 16:45:54;;;;;;;2.63;1.93;;;;;;;8.60;86.66;98878.81;5161654;56;1133208;-84
2021/11/04 16:51:01;;;;;;;1.23;1.17;;;;;;;8.57;86.44;98893.59;5145732;57;1132945;-79
2021/11/04 16:56:06;;;;;;;3.80;1.30;;;;;;;8.51;85.25;98894.20;5173771;56;1132778;-83
2021/11/04 17:01:12;;;;;;;2.73;2.10;;;;;;;8.45;85.04;98905.64;5161405;56;1132692;-83
2021/11/04 17:06:20;;;;;;;23.27;5.97;;;;;;;8.44;84.93;98910.57;5211994;56;1130907;-79
2021/11/04 17:11:28;;;;;;;2.00;1.43;;;;;;;8.45;84.79;98911.41;5176600;56;1132906;-79
2021/11/04 17:16:35;;;;;;;4.43;1.70;;;;;;;8.45;84.59;98906.97;5163895;57;1135052;-79
2021/11/04 17:21:42;;;;;;;1.57;0.83;;;;;;;8.42;84.58;98916.95;5164081;57;1134882;-80
2021/11/04 17:26:48;;;;;;;8.33;4.50;;;;;;;8.41;83.76;98915.29;5163499;57;1134832;-81
2021/11/04 17:31:54;;;;;;;3.33;2.30;;;;;;;8.38;84.27;98932.73;5188627;56;1135034;-80
2021/11/04 17:37:01;;;;;;;1.20;1.10;;;;;;;8.38;84.47;98912.97;5213225;56;1134811;-79
2021/11/04 17:42:07;;;;;;;5.80;2.53;;;;;;;8.36;84.19;98915.75;5220791;56;1135073;-84
2021/11/04 17:47:17;;;;;;;12.20;4.63;;;;;;;8.35;84.03;98917.20;5206571;56;1134633;-83
2021/11/04 17:52:22;;;;;;;20.97;9.90;;;;;;;8.35;84.67;98924.62;5225251;56;1136996;-80
2021/11/04 17:57:28;;;;;;;3.27;2.20;;;;;;;8.35;84.07;98897.45;5214260;56;1137216;-82
2021/11/04 18:02:34;;;;;;;4.53;1.53;;;;;;;8.37;82.90;98916.58;5186397;56;1134769;-79
2021/11/04 18:07:40;;;;;;;34.00;8.53;;;;;;;8.37;83.01;98906.04;5216618;56;1134838;-81
2021/11/04 18:12:46;;;;;;;3.10;1.30;;;;;;;8.39;83.91;98913.31;5201477;56;1136914;-81
2021/11/04 18:17:52;;;;;;;2.40;1.13;;;;;;;8.40;83.94;98918.93;5219743;56;1134924;-83
2021/11/04 18:22:57;;;;;;;3.70;1.83;;;;;;;8.44;82.12;98915.84;5194704;56;1135122;-81
2021/11/04 18:28:04;;;;;;;26.40;9.27;;;;;;;8.48;81.76;98907.16;5155581;56;1135344;-79
2021/11/04 18:33:10;;;;;;;6.97;3.47;;;;;;;8.52;83.66;98916.45;5192405;56;1136877;-81
2021/11/04 18:38:17;;;;;;;2.33;2.13;;;;;;;8.56;82.93;98913.02;5208966;56;1135036;-80
2021/11/04 18:43:23;;;;;;;5.13;2.20;;;;;;;8.56;83.46;98908.58;5199521;56;1134827;-83
2021/11/04 18:48:30;;;;;;;13.03;5.20;;;;;;;8.57;82.43;98908.91;5204332;55;1134855;-79
2021/11/04 18:53:36;;;;;;;3.17;2.13;;;;;;;8.62;82.90;98915.08;5261986;55;1137234;-78
2021/11/04 18:58:42;;;;;;;5.90;1.80;;;;;;;8.59;82.09;98935.95;5272381;55;1135044;-78
2021/11/04 19:03:48;;;;;;;3.50;1.90;;;;;;;8.57;81.75;98939.22;5265370;55;1134782;-78
2021/11/04 19:08:54;;;;;;;10.47;4.50;;;;;;;8.51;82.25;98946.89;5284307;55;1134471;-77
